sensor_id;sensor_type;location;lat;lon;timestamp;pressure;altitude;pressure_sealevel;temperature;humidity
5350;BME280;2697;42.144;24.794;2023-04-15T00:01:03;66166.13;;;12.55;100.00
5350;BME280;2697;42.144;24.794;2023-04-15T00:03:30;68913.06;;;12.62;100.00
5350;BME280;2697;42.144;24.794;2023-04-15T00:05:56;73027.91;;;12.63;100.00
5350;BME280;2697;42.144;24.794;2023-04-15T00:08:21;80576.88;;;12.61;100.00
5350;BME280;2697;42.144;24.794;2023-04-15T00:10:47;79542.94;;;12.59;100.00
5350;BME280;2697;42.144;24.794;2023-04-15T00:13:13;73698.88;;;12.51;100.00
5350;BME280;2697;42.144;24.794;2023-04-15T00:15:39;66482.56;;;12.32;100.00
5350;BME280;2697;42.144;24.794;2023-04-15T00:18:05;59993.25;;;12.39;100.00
5350;BME280;2697;42.144;24.794;2023-04-15T00:20:32;56232.72;;;12.35;100.00
5350;BME280;2697;42.144;24.794;2023-04-15T00:22:58;51460.44;;;12.39;100.00
5350;BME280;2697;42.144;24.794;2023-04-15T00:25:24;53157.41;;;12.30;100.00
5350;BME280;2697;42.144;24.794;2023-04-15T00:27:50;59657.63;;;12.45;100.00
5350;BME280;2697;42.144;24.794;2023-04-15T00:30:15;62747.28;;;12.58;100.00
5350;BME280;2697;42.144;24.794;2023-04-15T00:32:41;70298.44;;;12.74;100.00
5350;BME280;2697;42.144;24.794;2023-04-15T00:35:06;77485.94;;;12.61;100.00
5350;BME280;2697;42.144;24.794;2023-04-15T00:37:33;73034.09;;;12.68;100.00
5350;BME280;2697;42.144;24.794;2023-04-15T00:39:59;70936.03;;;12.34;100.00
5350;BME280;2697;42.144;24.794;2023-04-15T00:42:25;68565.28;;;12.57;100.00
5350;BME280;2697;42.144;24.794;2023-04-15T00:44:50;68900.81;;;12.51;100.00
5350;BME280;2697;42.144;24.794;2023-04-15T00:47:17;68910.75;;;12.60;100.00
5350;BME280;2697;42.144;24.794;2023-04-15T00:49:43;76113.59;;;12.62;100.00
5350;BME280;2697;42.144;24.794;2023-04-15T00:52:08;75073.34;;;12.53;100.00
5350;BME280;2697;42.144;24.794;2023-04-15T00:54:34;64426.66;;;12.29;100.00
5350;BME280;2697;42.144;24.794;2023-04-15T00:57:00;59292.84;;;12.21;100.00
5350;BME280;2697;42.144;24.794;2023-04-15T00:59:25;61704.09;;;12.41;100.00
5350;BME280;2697;42.144;24.794;2023-04-15T01:01:51;67176.13;;;12.40;100.00
5350;BME280;2697;42.144;24.794;2023-04-15T01:04:17;70266.34;;;12.47;100.00
5350;BME280;2697;42.144;24.794;2023-04-15T01:06:42;66804.41;;;12.13;100.00
5350;BME280;2697;42.144;24.794;2023-04-15T01:09:08;55165.75;;;11.88;100.00
5350;BME280;2697;42.144;24.794;2023-04-15T01:11:34;47667.97;;;11.84;100.00
5350;BME280;2697;42.144;24.794;2023-04-15T01:14:00;50731.16;;;11.83;100.00
5350;BME280;2697;42.144;24.794;2023-04-15T01:16:25;43916.53;;;11.70;100.00
5350;BME280;2697;42.144;24.794;2023-04-15T01:18:52;41191.78;;;11.61;100.00
5350;BME280;2697;42.144;24.794;2023-04-15T01:21:18;36429.19;;;11.44;100.00
5350;BME280;2697;42.144;24.794;2023-04-15T01:23:45;25925.84;;;11.34;100.00
5350;BME280;2697;42.144;24.794;2023-04-15T01:26:12;20178.47;;;11.26;100.00
5350;BME280;2697;42.144;24.794;2023-04-15T01:28:37;16128.56;;;11.24;100.00
5350;BME280;2697;42.144;24.794;2023-04-15T01:31:13;20190.16;;;11.59;100.00
5350;BME280;2697;42.144;24.794;2023-04-15T01:33:40;29669.91;;;11.79;100.00
5350;BME280;2697;42.144;24.794;2023-04-15T01:36:07;33052.44;;;11.67;100.00
5350;BME280;2697;42.144;24.794;2023-04-15T01:38:34;31696.56;;;11.67;100.00
5350;BME280;2697;42.144;24.794;2023-04-15T01:41:00;30678.56;;;11.64;100.00
5350;BME280;2697;42.144;24.794;2023-04-15T01:43:25;29318.03;;;11.52;100.00
5350;BME280;2697;42.144;24.794;2023-04-15T01:45:51;31346.94;;;11.47;100.00
5350;BME280;2697;42.144;24.794;2023-04-15T01:48:17;27948.09;;;11.19;100.00
5350;BME280;2697;42.144;24.794;2023-04-15T01:50:43;23890.09;;;11.16;100.00
5350;BME280;2697;42.144;24.794;2023-04-15T01:53:08;25585.91;;;11.30;100.00
5350;BME280;2697;42.144;24.794;2023-04-15T01:55:33;28626.63;;;11.23;100.00
5350;BME280;2697;42.144;24.794;2023-04-15T01:57:59;29981.25;;;11.25;100.00
5350;BME280;2697;42.144;24.794;2023-04-15T02:00:25;28284.41;;;11.14;100.00
5350;BME280;2697;42.144;24.794;2023-04-15T02:02:51;27953.41;;;11.30;100.00
5350;BME280;2697;42.144;24.794;2023-04-15T02:05:17;28961.97;;;11.17;100.00
5350;BME280;2697;42.144;24.794;2023-04-15T02:07:42;30308.22;;;11.02;100.00
5350;BME280;2697;42.144;24.794;2023-04-15T02:10:08;27256.06;;;10.85;100.00
5350;BME280;2697;42.144;24.794;2023-04-15T02:12:34;29953.34;;;10.70;100.00
5350;BME280;2697;42.144;24.794;2023-04-15T02:15:00;30970.88;;;10.75;100.00
5350;BME280;2697;42.144;24.794;2023-04-15T02:17:26;33680.66;;;10.80;100.00
5350;BME280;2697;42.144;24.794;2023-04-15T02:19:51;36728.34;;;10.79;100.00
5350;BME280;2697;42.144;24.794;2023-04-15T02:22:17;42842.78;;;10.95;100.00
5350;BME280;2697;42.144;24.794;2023-04-15T02:24:43;53731.72;;;11.09;100.00
5350;BME280;2697;42.144;24.794;2023-04-15T02:27:10;64991.13;;;11.18;100.00
5350;BME280;2697;42.144;24.794;2023-04-15T02:29:36;58487.66;;;10.96;100.00
5350;BME280;2697;42.144;24.794;2023-04-15T02:32:02;58484.69;;;10.93;100.00
5350;BME280;2697;42.144;24.794;2023-04-15T02:34:27;60202.03;;;11.06;100.00
5350;BME280;2697;42.144;24.794;2023-04-15T02:36:52;64973.50;;;11.02;100.00
5350;BME280;2697;42.144;24.794;2023-04-15T02:39:21;67713.25;;;11.09;100.00
5350;BME280;2697;42.144;24.794;2023-04-15T02:41:47;79359.50;;;11.20;100.00
5350;BME280;2697;42.144;24.794;2023-04-15T02:44:16;84145.66;;;11.09;100.00
5350;BME280;2697;42.144;24.794;2023-04-15T02:46:44;81731.31;;;10.99;100.00
5350;BME280;2697;42.144;24.794;2023-04-15T02:49:13;66653.50;;;10.77;100.00
5350;BME280;2697;42.144;24.794;2023-04-15T02:51:38;56430.19;;;10.82;100.00
5350;BME280;2697;42.144;24.794;2023-04-15T02:54:04;63575.97;;;10.71;100.00
5350;BME280;2697;42.144;24.794;2023-04-15T02:56:29;62575.75;;;10.93;100.00
5350;BME280;2697;42.144;24.794;2023-04-15T02:58:55;76927.59;;;10.93;100.00
5350;BME280;2697;42.144;24.794;2023-04-15T03:01:20;85523.78;;;11.13;100.00
5350;BME280;2697;42.144;24.794;2023-04-15T03:03:46;94796.09;;;11.11;100.00
5350;BME280;2697;42.144;24.794;2023-04-15T03:06:11;98578.78;;;11.09;100.00
5350;BME280;2697;42.144;24.794;2023-04-15T03:08:37;95807.81;;;10.98;100.00
5350;BME280;2697;42.144;24.794;2023-04-15T03:11:03;104737.66;;;10.85;100.00
5350;BME280;2697;42.144;24.794;2023-04-15T03:13:28;103006.09;;;10.80;100.00
5350;BME280;2697;42.144;24.794;2023-04-15T03:15:54;104389.50;;;10.83;100.00
5350;BME280;2697;42.144;24.794;2023-04-15T03:18:19;117534.47;;;10.98;100.00
5350;BME280;2697;42.144;24.794;2023-04-15T03:20:44;118910.88;;;10.94;100.00
5350;BME280;2697;42.144;24.794;2023-04-15T03:23:10;116481.47;;;10.90;100.00
5350;BME280;2697;42.144;24.794;2023-04-15T03:25:35;138004.09;;;11.05;100.00
5350;BME280;2697;42.144;24.794;2023-04-15T03:28:02;148430.91;;;10.97;100.00
5350;BME280;2697;42.144;24.794;2023-04-15T03:30:28;149999.56;;;10.87;100.00
5350;BME280;2697;42.144;24.794;2023-04-15T03:32:53;138628.84;;;10.74;100.00
5350;BME280;2697;42.144;24.794;2023-04-15T03:35:19;134462.69;;;10.75;100.00
5350;BME280;2697;42.144;24.794;2023-04-15T03:37:44;155359.78;;;10.83;100.00
5350;BME280;2697;42.144;24.794;2023-04-15T03:40:10;155350.53;;;10.79;100.00
5350;BME280;2697;42.144;24.794;2023-04-15T03:42:35;155361.09;;;10.83;100.00
5350;BME280;2697;42.144;24.794;2023-04-15T03:45:01;155345.28;;;10.77;100.00
5350;BME280;2697;42.144;24.794;2023-04-15T03:47:26;155375.59;;;10.89;100.00
5350;BME280;2697;42.144;24.794;2023-04-15T03:49:51;155361.09;;;10.83;100.00
5350;BME280;2697;42.144;24.794;2023-04-15T03:52:17;155333.44;;;10.73;100.00
5350;BME280;2697;42.144;24.794;2023-04-15T03:54:42;155326.88;;;10.70;100.00
5350;BME280;2697;42.144;24.794;2023-04-15T03:57:07;155362.41;;;10.84;100.00
5350;BME280;2697;42.144;24.794;2023-04-15T03:59:33;155332.13;;;10.72;100.00
5350;BME280;2697;42.144;24.794;2023-04-15T04:01:58;155261.03;;;10.45;100.00
5350;BME280;2697;42.144;24.794;2023-04-15T04:04:23;155272.84;;;10.49;100.00
5350;BME280;2697;42.144;24.794;2023-04-15T04:06:49;155243.91;;;10.38;100.00
5350;BME280;2697;42.144;24.794;2023-04-15T04:09:14;155242.56;;;10.38;100.00
5350;BME280;2697;42.144;24.794;2023-04-15T04:11:40;155230.75;;;10.33;100.00
5350;BME280;2697;42.144;24.794;2023-04-15T04:14:05;155171.44;;;10.10;100.00
5350;BME280;2697;42.144;24.794;2023-04-15T04:16:31;155230.75;;;10.33;100.00
5350;BME280;2697;42.144;24.794;2023-04-15T04:18:56;155220.19;;;10.29;100.00
5350;BME280;2697;42.144;24.794;2023-04-15T04:21:21;155183.31;;;10.15;100.00
5350;BME280;2697;42.144;24.794;2023-04-15T04:23:47;144715.81;;;10.03;100.00
5350;BME280;2697;42.144;24.794;2023-04-15T04:26:12;130130.81;;;9.97;100.00
5350;BME280;2697;42.144;24.794;2023-04-15T04:28:37;132950.56;;;10.19;100.00
5350;BME280;2697;42.144;24.794;2023-04-15T04:31:05;141360.28;;;10.53;100.00
5350;BME280;2697;42.144;24.794;2023-04-15T04:33:31;154933.63;;;10.65;100.00
5350;BME280;2697;42.144;24.794;2023-04-15T04:35:57;155353.22;;;10.80;100.00
5350;BME280;2697;42.144;24.794;2023-04-15T04:38:22;155309.75;;;10.64;100.00
5350;BME280;2697;42.144;24.794;2023-04-15T04:40:47;155317.63;;;10.67;100.00
5350;BME280;2697;42.144;24.794;2023-04-15T04:43:13;155424.34;;;11.08;100.00
5350;BME280;2697;42.144;24.794;2023-04-15T04:45:40;155731.41;;;12.26;100.00
5350;BME280;2697;42.144;24.794;2023-04-15T04:48:06;155897.59;;;12.91;100.00
5350;BME280;2697;42.144;24.794;2023-04-15T04:50:33;156034.88;;;13.44;100.00
5350;BME280;2697;42.144;24.794;2023-04-15T04:52:59;156198.59;;;14.07;100.00
5350;BME280;2697;42.144;24.794;2023-04-15T04:55:24;156094.25;;;13.66;100.00
5350;BME280;2697;42.144;24.794;2023-04-15T04:57:49;156280.44;;;14.38;100.00
5350;BME280;2697;42.144;24.794;2023-04-15T05:00:16;156432.38;;;14.97;100.00
5350;BME280;2697;42.144;24.794;2023-04-15T05:02:41;156338.59;;;14.61;99.73
5350;BME280;2697;42.144;24.794;2023-04-15T05:05:08;156361.03;;;14.69;97.04
5350;BME280;2697;42.144;24.794;2023-04-15T05:07:34;156435.03;;;14.98;91.15
5350;BME280;2697;42.144;24.794;2023-04-15T05:09:59;156568.53;;;15.49;86.63
5350;BME280;2697;42.144;24.794;2023-04-15T05:12:25;156485.28;;;15.17;88.72
5350;BME280;2697;42.144;24.794;2023-04-15T05:14:50;156691.50;;;15.96;82.67
5350;BME280;2697;42.144;24.794;2023-04-15T05:17:16;156860.78;;;16.62;78.13
5350;BME280;2697;42.144;24.794;2023-04-15T05:19:41;156872.72;;;16.66;77.22
5350;BME280;2697;42.144;24.794;2023-04-15T05:22:07;156821.09;;;16.46;77.50
5350;BME280;2697;42.144;24.794;2023-04-15T05:24:32;156904.53;;;16.78;79.97
5350;BME280;2697;42.144;24.794;2023-04-15T05:26:58;156825.09;;;16.48;82.22
5350;BME280;2697;42.144;24.794;2023-04-15T05:29:23;156999.78;;;17.15;75.07
5350;BME280;2697;42.144;24.794;2023-04-15T05:31:48;157340.13;;;18.46;70.83
5350;BME280;2697;42.144;24.794;2023-04-15T05:34:14;157699.38;;;19.84;63.12
5350;BME280;2697;42.144;24.794;2023-04-15T05:36:40;157688.75;;;19.80;60.95
5350;BME280;2697;42.144;24.794;2023-04-15T05:39:06;157181.16;;;17.85;67.98
5350;BME280;2697;42.144;24.794;2023-04-15T05:41:31;157174.56;;;17.82;69.02
5350;BME280;2697;42.144;24.794;2023-04-15T05:43:57;157158.66;;;17.76;65.69
5350;BME280;2697;42.144;24.794;2023-04-15T05:46:22;156928.34;;;16.88;71.25
5350;BME280;2697;42.144;24.794;2023-04-15T05:48:48;156756.31;;;16.21;76.82
5350;BME280;2697;42.144;24.794;2023-04-15T05:51:13;156626.72;;;15.72;77.72
5350;BME280;2697;42.144;24.794;2023-04-15T05:53:39;156785.41;;;16.33;76.55
5350;BME280;2697;42.144;24.794;2023-04-15T05:56:06;156962.72;;;17.01;72.05
5350;BME280;2697;42.144;24.794;2023-04-15T05:58:31;157061.97;;;17.39;71.54
5350;BME280;2697;42.144;24.794;2023-04-15T06:00:57;157467.34;;;18.95;63.70
5350;BME280;2697;42.144;24.794;2023-04-15T06:03:22;157683.47;;;19.78;59.07
5350;BME280;2697;42.144;24.794;2023-04-15T06:05:48;157507.13;;;19.10;59.72
5350;BME280;2697;42.144;24.794;2023-04-15T06:08:14;157536.28;;;19.21;60.18
5350;BME280;2697;42.144;24.794;2023-04-15T06:10:39;157497.81;;;19.06;60.06
5350;BME280;2697;42.144;24.794;2023-04-15T06:13:05;157662.25;;;19.70;57.26
5350;BME280;2697;42.144;24.794;2023-04-15T06:15:31;157591.91;;;19.43;59.32
5350;BME280;2697;42.144;24.794;2023-04-15T06:17:56;157662.25;;;19.70;57.96
5350;BME280;2697;42.144;24.794;2023-04-15T06:20:22;158011.19;;;21.03;54.31
5350;BME280;2697;42.144;24.794;2023-04-15T06:22:48;158185.09;;;21.70;51.39
5350;BME280;2697;42.144;24.794;2023-04-15T06:25:13;158531.88;;;23.03;47.46
5350;BME280;2697;42.144;24.794;2023-04-15T06:27:39;158488.00;;;22.86;48.17
5350;BME280;2697;42.144;24.794;2023-04-15T06:30:05;157760.38;;;20.07;53.94
5350;BME280;2697;42.144;24.794;2023-04-15T06:32:31;157190.47;;;17.88;59.89
5350;BME280;2697;42.144;24.794;2023-04-15T06:34:56;157410.38;;;18.73;61.28
5350;BME280;2697;42.144;24.794;2023-04-15T06:37:22;157739.13;;;19.99;56.98
5350;BME280;2697;42.144;24.794;2023-04-15T06:39:47;158312.63;;;22.19;50.37
5350;BME280;2697;42.144;24.794;2023-04-15T06:42:14;158566.41;;;23.16;46.42
5350;BME280;2697;42.144;24.794;2023-04-15T06:44:40;158166.50;;;21.63;49.58
5350;BME280;2697;42.144;24.794;2023-04-15T06:47:05;158264.75;;;22.01;49.74
5350;BME280;2697;42.144;24.794;2023-04-15T06:49:31;157930.19;;;20.72;52.31
5350;BME280;2697;42.144;24.794;2023-04-15T06:51:57;157694.03;;;19.82;54.70
5350;BME280;2697;42.144;24.794;2023-04-15T06:54:24;157460.72;;;18.92;57.88
5350;BME280;2697;42.144;24.794;2023-04-15T06:56:51;157398.44;;;18.68;59.98
5350;BME280;2697;42.144;24.794;2023-04-15T06:59:16;157357.34;;;18.52;60.38
5350;BME280;2697;42.144;24.794;2023-04-15T07:01:41;157415.69;;;18.75;59.72
5350;BME280;2697;42.144;24.794;2023-04-15T07:04:07;157096.41;;;17.52;65.11
5350;BME280;2697;42.144;24.794;2023-04-15T07:06:32;156941.53;;;16.93;69.47
5350;BME280;2697;42.144;24.794;2023-04-15T07:08:59;156720.59;;;16.08;77.10
5350;BME280;2697;42.144;24.794;2023-04-15T07:11:25;156692.84;;;15.97;83.60
5350;BME280;2697;42.144;24.794;2023-04-15T07:13:51;156782.78;;;16.32;79.83
5350;BME280;2697;42.144;24.794;2023-04-15T07:16:16;156785.41;;;16.33;79.09
5350;BME280;2697;42.144;24.794;2023-04-15T07:18:42;156785.41;;;16.33;79.02
5350;BME280;2697;42.144;24.794;2023-04-15T07:21:08;156859.47;;;16.61;78.19
5350;BME280;2697;42.144;24.794;2023-04-15T07:23:33;156937.56;;;16.91;76.24
5350;BME280;2697;42.144;24.794;2023-04-15T07:25:59;156822.41;;;16.47;78.58
5350;BME280;2697;42.144;24.794;2023-04-15T07:28:25;156875.38;;;16.67;78.13
5350;BME280;2697;42.144;24.794;2023-04-15T07:30:50;156954.78;;;16.98;76.31
5350;BME280;2697;42.144;24.794;2023-04-15T07:33:16;156954.78;;;16.98;78.29
5350;BME280;2697;42.144;24.794;2023-04-15T07:35:41;157013.00;;;17.20;77.28
5350;BME280;2697;42.144;24.794;2023-04-15T07:38:06;156999.78;;;17.15;75.85
5350;BME280;2697;42.144;24.794;2023-04-15T07:40:32;157044.78;;;17.32;76.23
5350;BME280;2697;42.144;24.794;2023-04-15T07:42:58;157092.44;;;17.51;74.52
5350;BME280;2697;42.144;24.794;2023-04-15T07:45:23;157146.75;;;17.72;73.52
5350;BME280;2697;42.144;24.794;2023-04-15T07:47:49;157118.94;;;17.61;73.91
5350;BME280;2697;42.144;24.794;2023-04-15T07:50:15;157095.09;;;17.52;73.53
5350;BME280;2697;42.144;24.794;2023-04-15T07:52:41;157173.25;;;17.82;72.48
5350;BME280;2697;42.144;24.794;2023-04-15T07:55:07;157118.94;;;17.61;72.58
5350;BME280;2697;42.144;24.794;2023-04-15T07:57:34;157153.38;;;17.74;72.64
5350;BME280;2697;42.144;24.794;2023-04-15T08:00:00;157243.44;;;18.09;74.10
5350;BME280;2697;42.144;24.794;2023-04-15T08:02:26;157189.16;;;17.88;76.06
5350;BME280;2697;42.144;24.794;2023-04-15T08:04:51;157316.28;;;18.37;74.31
5350;BME280;2697;42.144;24.794;2023-04-15T08:07:18;157092.44;;;17.51;76.69
5350;BME280;2697;42.144;24.794;2023-04-15T08:09:43;157087.13;;;17.49;79.92
5350;BME280;2697;42.144;24.794;2023-04-15T08:12:09;157087.13;;;17.49;80.07
5350;BME280;2697;42.144;24.794;2023-04-15T08:14:37;157060.66;;;17.38;81.61
5350;BME280;2697;42.144;24.794;2023-04-15T08:17:02;157093.78;;;17.51;81.02
5350;BME280;2697;42.144;24.794;2023-04-15T08:19:28;157081.84;;;17.47;81.19
5350;BME280;2697;42.144;24.794;2023-04-15T08:21:54;157124.22;;;17.63;81.98
5350;BME280;2697;42.144;24.794;2023-04-15T08:24:20;157164.00;;;17.78;80.99
5350;BME280;2697;42.144;24.794;2023-04-15T08:26:45;157137.41;;;17.68;80.74
5350;BME280;2697;42.144;24.794;2023-04-15T08:29:11;157106.97;;;17.56;83.21
5350;BME280;2697;42.144;24.794;2023-04-15T08:31:37;157156.00;;;17.75;80.08
5350;BME280;2697;42.144;24.794;2023-04-15T08:34:02;157095.09;;;17.52;82.58
5350;BME280;2697;42.144;24.794;2023-04-15T08:36:28;157162.66;;;17.78;79.62
5350;BME280;2697;42.144;24.794;2023-04-15T08:38:53;157201.03;;;17.92;78.03
5350;BME280;2697;42.144;24.794;2023-04-15T08:41:24;157193.13;;;17.89;78.61
5350;BME280;2697;42.144;24.794;2023-04-15T08:43:57;157220.91;;;18.00;77.95
5350;BME280;2697;42.144;24.794;2023-04-15T08:46:23;157185.13;;;17.86;79.48
5350;BME280;2697;42.144;24.794;2023-04-15T08:48:49;157267.28;;;18.18;76.28
5350;BME280;2697;42.144;24.794;2023-04-15T08:51:16;157275.19;;;18.21;77.09
5350;BME280;2697;42.144;24.794;2023-04-15T08:53:43;157352.00;;;18.50;75.05
5350;BME280;2697;42.144;24.794;2023-04-15T08:56:09;157292.44;;;18.28;74.24
5350;BME280;2697;42.144;24.794;2023-04-15T08:58:36;157344.09;;;18.47;73.53
5350;BME280;2697;42.144;24.794;2023-04-15T09:01:02;157373.22;;;18.59;73.30
5350;BME280;2697;42.144;24.794;2023-04-15T09:03:27;157428.94;;;18.80;72.67
5350;BME280;2697;42.144;24.794;2023-04-15T09:05:54;157477.97;;;18.99;71.32
5350;BME280;2697;42.144;24.794;2023-04-15T09:08:21;157493.84;;;19.05;70.15
5350;BME280;2697;42.144;24.794;2023-04-15T09:10:46;157470.00;;;18.96;67.29
5350;BME280;2697;42.144;24.794;2023-04-15T09:13:12;157497.81;;;19.06;68.20
5350;BME280;2697;42.144;24.794;2023-04-15T09:15:38;157387.81;;;18.64;70.18
5350;BME280;2697;42.144;24.794;2023-04-15T09:18:04;157403.72;;;18.70;69.39
5350;BME280;2697;42.144;24.794;2023-04-15T09:20:30;157436.88;;;18.83;69.34
5350;BME280;2697;42.144;24.794;2023-04-15T09:23:10;157623.78;;;19.55;67.81
5350;BME280;2697;42.144;24.794;2023-04-15T09:25:36;157747.13;;;20.02;63.85
5350;BME280;2697;42.144;24.794;2023-04-15T09:28:02;157842.63;;;20.39;60.82
5350;BME280;2697;42.144;24.794;2023-04-15T09:30:28;157749.78;;;20.03;61.38
5350;BME280;2697;42.144;24.794;2023-04-15T09:32:58;157680.81;;;19.77;62.78
5350;BME280;2697;42.144;24.794;2023-04-15T09:35:25;157915.63;;;20.67;60.19
5350;BME280;2697;42.144;24.794;2023-04-15T09:37:52;158090.84;;;21.34;56.57
5350;BME280;2697;42.144;24.794;2023-04-15T09:40:35;158060.28;;;21.22;53.84
5350;BME280;2697;42.144;24.794;2023-04-15T09:43:02;157922.25;;;20.69;55.39
5350;BME280;2697;42.144;24.794;2023-04-15T09:45:30;157999.22;;;20.99;52.52
5350;BME280;2697;42.144;24.794;2023-04-15T09:48:14;158044.34;;;21.16;52.59
5350;BME280;2697;42.144;24.794;2023-04-15T09:50:41;158137.31;;;21.52;49.34
5350;BME280;2697;42.144;24.794;2023-04-15T09:53:09;158076.22;;;21.28;47.35
5350;BME280;2697;42.144;24.794;2023-04-15T09:55:35;158214.31;;;21.81;48.07
5350;BME280;2697;42.144;24.794;2023-04-15T09:58:00;158191.72;;;21.73;48.44
5350;BME280;2697;42.144;24.794;2023-04-15T10:00:27;157910.28;;;20.65;50.75
5350;BME280;2697;42.144;24.794;2023-04-15T10:02:53;157907.63;;;20.64;50.65
5350;BME280;2697;42.144;24.794;2023-04-15T10:05:19;157897.06;;;20.60;49.96
5350;BME280;2697;42.144;24.794;2023-04-15T10:07:45;157991.25;;;20.96;50.56
5350;BME280;2697;42.144;24.794;2023-04-15T10:10:11;158043.00;;;21.16;49.37
5350;BME280;2697;42.144;24.794;2023-04-15T10:12:40;157931.53;;;20.73;50.22
5350;BME280;2697;42.144;24.794;2023-04-15T10:15:14;157893.06;;;20.58;52.94
5350;BME280;2697;42.144;24.794;2023-04-15T10:17:43;157866.56;;;20.48;56.14
5350;BME280;2697;42.144;24.794;2023-04-15T10:20:09;157873.16;;;20.51;56.40
5350;BME280;2697;42.144;24.794;2023-04-15T10:22:35;158041.69;;;21.15;53.58
5350;BME280;2697;42.144;24.794;2023-04-15T10:25:01;158193.06;;;21.73;52.09
5350;BME280;2697;42.144;24.794;2023-04-15T10:27:28;158254.16;;;21.97;48.82
5350;BME280;2697;42.144;24.794;2023-04-15T10:29:55;158143.94;;;21.54;56.40
5350;BME280;2697;42.144;24.794;2023-04-15T10:32:23;158072.25;;;21.27;58.37
5350;BME280;2697;42.144;24.794;2023-04-15T10:34:50;158074.91;;;21.28;58.98
5350;BME280;2697;42.144;24.794;2023-04-15T10:37:33;158110.75;;;21.42;55.77
5350;BME280;2697;42.144;24.794;2023-04-15T10:39:59;158072.25;;;21.27;53.97
5350;BME280;2697;42.144;24.794;2023-04-15T10:42:33;157818.75;;;20.30;54.92
5350;BME280;2697;42.144;24.794;2023-04-15T10:44:59;157859.88;;;20.45;58.44
5350;BME280;2697;42.144;24.794;2023-04-15T10:47:24;157893.06;;;20.58;56.02
5350;BME280;2697;42.144;24.794;2023-04-15T10:49:51;157948.78;;;20.80;54.58
5350;BME280;2697;42.144;24.794;2023-04-15T10:52:23;157922.25;;;20.69;58.25
5350;BME280;2697;42.144;24.794;2023-04-15T10:54:49;157927.56;;;20.71;55.59
5350;BME280;2697;42.144;24.794;2023-04-15T10:57:21;158028.41;;;21.10;53.61
5350;BME280;2697;42.144;24.794;2023-04-15T11:02:58;158093.50;;;21.35;52.88
5350;BME280;2697;42.144;24.794;2023-04-15T11:05:49;158124.00;;;21.47;51.08
5350;BME280;2697;42.144;24.794;2023-04-15T11:08:15;157993.91;;;20.97;52.68
5350;BME280;2697;42.144;24.794;2023-04-15T11:15:39;157951.44;;;20.81;53.30
5350;BME280;2697;42.144;24.794;2023-04-15T11:18:09;157983.28;;;20.93;52.87
5350;BME280;2697;42.144;24.794;2023-04-15T11:20:36;158039.03;;;21.14;52.17
5350;BME280;2697;42.144;24.794;2023-04-15T11:23:01;158012.50;;;21.04;51.83
5350;BME280;2697;42.144;24.794;2023-04-15T11:25:28;158155.84;;;21.59;51.38
5350;BME280;2697;42.144;24.794;2023-04-15T11:27:55;157981.94;;;20.92;53.86
5350;BME280;2697;42.144;24.794;2023-04-15T11:30:23;158052.28;;;21.19;52.12
5350;BME280;2697;42.144;24.794;2023-04-15T11:32:49;158094.81;;;21.36;53.09
5350;BME280;2697;42.144;24.794;2023-04-15T11:35:16;157996.56;;;20.98;53.85
5350;BME280;2697;42.144;24.794;2023-04-15T11:37:47;158096.16;;;21.36;51.88
5350;BME280;2697;42.144;24.794;2023-04-15T11:40:21;158143.94;;;21.54;50.04
5350;BME280;2697;42.144;24.794;2023-04-15T11:43:23;157993.91;;;20.97;54.29
5350;BME280;2697;42.144;24.794;2023-04-15T11:45:49;158126.66;;;21.48;55.27
5350;BME280;2697;42.144;24.794;2023-04-15T11:48:15;158227.56;;;21.86;52.74
5350;BME280;2697;42.144;24.794;2023-04-15T11:50:41;158106.75;;;21.40;53.90
5350;BME280;2697;42.144;24.794;2023-04-15T11:53:09;158102.75;;;21.39;51.86
5350;BME280;2697;42.144;24.794;2023-04-15T11:58:26;158195.69;;;21.74;49.71
5350;BME280;2697;42.144;24.794;2023-04-15T12:00:54;158142.59;;;21.54;51.80
5350;BME280;2697;42.144;24.794;2023-04-15T12:03:26;158033.69;;;21.12;52.18
5350;BME280;2697;42.144;24.794;2023-04-15T12:06:15;158129.31;;;21.49;52.26
5350;BME280;2697;42.144;24.794;2023-04-15T12:13:56;158116.06;;;21.44;51.71
5350;BME280;2697;42.144;24.794;2023-04-15T12:16:23;158113.41;;;21.43;53.12
5350;BME280;2697;42.144;24.794;2023-04-15T12:18:52;158020.44;;;21.07;53.58
5350;BME280;2697;42.144;24.794;2023-04-15T12:21:21;158028.41;;;21.10;54.80
5350;BME280;2697;42.144;24.794;2023-04-15T12:26:16;158114.75;;;21.43;53.30
5350;BME280;2697;42.144;24.794;2023-04-15T12:28:42;158101.44;;;21.38;54.44
5350;BME280;2697;42.144;24.794;2023-04-15T12:31:09;158155.84;;;21.59;53.09
5350;BME280;2697;42.144;24.794;2023-04-15T12:33:35;158182.44;;;21.69;54.17
5350;BME280;2697;42.144;24.794;2023-04-15T12:36:00;158185.09;;;21.70;54.64
5350;BME280;2697;42.144;24.794;2023-04-15T12:38:26;158132.00;;;21.50;55.07
5350;BME280;2697;42.144;24.794;2023-04-15T12:40:52;158122.69;;;21.46;55.93
5350;BME280;2697;42.144;24.794;2023-04-15T12:43:18;158376.41;;;22.43;53.14
5350;BME280;2697;42.144;24.794;2023-04-15T12:45:43;158238.22;;;21.90;55.40
5350;BME280;2697;42.144;24.794;2023-04-15T12:48:08;158397.59;;;22.52;51.89
5350;BME280;2697;42.144;24.794;2023-04-15T12:50:34;158315.28;;;22.20;52.49
5350;BME280;2697;42.144;24.794;2023-04-15T12:53:00;158278.06;;;22.06;55.04
5350;BME280;2697;42.144;24.794;2023-04-15T12:55:25;158304.66;;;22.16;55.73
5350;BME280;2697;42.144;24.794;2023-04-15T12:57:51;158303.34;;;22.15;55.80
5350;BME280;2697;42.144;24.794;2023-04-15T13:00:17;158235.56;;;21.89;56.31
5350;BME280;2697;42.144;24.794;2023-04-15T13:02:43;158335.19;;;22.28;54.66
5350;BME280;2697;42.144;24.794;2023-04-15T13:05:09;158441.47;;;22.68;54.14
5350;BME280;2697;42.144;24.794;2023-04-15T13:07:34;158328.56;;;22.25;55.43
5350;BME280;2697;42.144;24.794;2023-04-15T13:10:00;158270.06;;;22.03;56.86
5350;BME280;2697;42.144;24.794;2023-04-15T13:12:26;158260.78;;;21.99;57.33